Time;durP1;ratioP1;P1;durP2;ratioP2;P2;SDS_P1;SDS_P2;PMS_P1;PMS_P2;Temp;Humidity;BMP_temperature;BMP_pressure;BME280_temperature;BME280_humidity;BME280_pressure;Samples;Min_cycle;Max_cycle;Signal;HPM_P1;HPM_P2
2022/11/13 00:00:24;;;;;;;11.95;5.88;;;25.90;99.90;;;;;;4974452;28;20046;-49
2022/11/13 00:02:50;;;;;;;12.00;5.50;;;25.90;99.90;;;;;;4974113;28;20456;-49
2022/11/13 00:05:16;;;;;;;11.02;6.20;;;25.90;99.90;;;;;;4977370;28;20029;-49
2022/11/13 00:07:41;;;;;;;12.70;6.13;;;25.90;99.90;;;;;;4978148;28;20038;-49
2022/11/13 00:10:07;;;;;;;13.25;6.50;;;25.90;99.90;;;;;;4978215;28;20031;-49
2022/11/13 00:12:33;;;;;;;11.25;6.13;;;25.90;99.90;;;;;;4977893;28;20030;-49
2022/11/13 00:14:59;;;;;;;13.27;5.70;;;25.90;99.90;;;;;;4978248;28;20031;-49
2022/11/13 00:17:25;;;;;;;11.20;6.03;;;25.90;99.90;;;;;;4992729;28;20416;-49
2022/11/13 00:19:50;;;;;;;10.82;5.70;;;25.90;99.90;;;;;;4977751;28;20081;-49
2022/11/13 00:22:16;;;;;;;12.68;6.28;;;25.90;99.90;;;;;;4977756;28;20027;-49
2022/11/13 00:24:42;;;;;;;12.20;5.50;;;25.80;99.90;;;;;;4992517;28;20035;-49
2022/11/13 00:27:07;;;;;;;10.95;5.97;;;25.80;99.90;;;;;;4977670;28;20030;-49
2022/11/13 00:29:33;;;;;;;12.13;5.47;;;25.80;99.90;;;;;;4977686;28;20059;-49
2022/11/13 00:31:59;;;;;;;12.73;5.55;;;25.80;99.90;;;;;;4992635;28;20109;-48
2022/11/13 00:34:24;;;;;;;10.82;5.20;;;25.80;99.90;;;;;;4977369;28;20495;-49
2022/11/13 00:36:50;;;;;;;10.35;5.53;;;25.80;99.90;;;;;;4992390;28;20038;-48
2022/11/13 00:39:16;;;;;;;11.88;6.18;;;25.80;99.90;;;;;;4977381;28;20027;-49
2022/11/13 00:41:42;;;;;;;11.52;6.00;;;25.80;99.90;;;;;;4977324;28;20027;-48
2022/11/13 00:44:08;;;;;;;12.45;6.22;;;25.80;99.90;;;;;;4977213;28;20495;-48
2022/11/13 00:46:34;;;;;;;15.90;5.65;;;25.80;99.90;;;;;;4977579;28;20114;-48
2022/11/13 00:48:59;;;;;;;9.88;6.18;;;25.80;99.90;;;;;;4977296;28;20062;-48
2022/11/13 00:51:25;;;;;;;9.63;6.03;;;25.80;99.90;;;;;;4977372;28;20027;-48
2022/11/13 00:53:51;;;;;;;11.27;5.32;;;25.70;99.90;;;;;;4992078;28;20520;-48
2022/11/13 00:56:17;;;;;;;11.93;5.47;;;25.70;99.90;;;;;;4977123;28;20031;-48
2022/11/13 00:58:43;;;;;;;10.55;5.65;;;25.70;99.90;;;;;;4977191;28;20039;-49
2022/11/13 01:01:14;;;;;;;11.85;5.63;;;25.70;99.90;;;;;;4977309;28;20142;-49
2022/11/13 01:03:40;;;;;;;12.45;6.20;;;25.70;99.90;;;;;;4976852;28;20027;-49
2022/11/13 01:06:23;;;;;;;10.45;5.57;;;25.70;99.90;;;;;;4976936;28;20042;-49
2022/11/13 01:08:49;;;;;;;11.82;5.13;;;25.70;99.90;;;;;;4976916;28;20038;-48
2022/11/13 01:11:18;;;;;;;15.35;5.78;;;25.70;99.90;;;;;;4977467;28;20027;-49
2022/11/13 01:13:46;;;;;;;11.75;5.40;;;25.70;99.90;;;;;;4976803;28;20035;-48
2022/11/13 01:16:14;;;;;;;11.68;5.28;;;25.70;99.90;;;;;;4991005;28;20027;-49
2022/11/13 01:18:41;;;;;;;13.00;5.90;;;25.70;99.90;;;;;;4991810;28;20023;-49
2022/11/13 01:21:10;;;;;;;11.80;5.35;;;25.70;99.90;;;;;;4976895;28;20428;-49
2022/11/13 01:23:36;;;;;;;9.63;5.07;;;25.70;99.90;;;;;;4976698;28;20503;-48
2022/11/13 01:26:23;;;;;;;10.02;5.38;;;25.70;99.90;;;;;;4991435;28;20114;-48
2022/11/13 01:28:50;;;;;;;12.50;6.63;;;25.70;99.90;;;;;;4976497;28;20027;-49
2022/11/13 01:31:18;;;;;;;9.90;5.47;;;25.70;99.90;;;;;;4976516;28;20081;-48
2022/11/13 01:33:45;;;;;;;9.40;5.15;;;25.60;99.90;;;;;;4976309;28;20530;-48
2022/11/13 01:36:15;;;;;;;8.27;4.38;;;25.60;99.90;;;;;;4991590;28;20113;-48
2022/11/13 01:38:41;;;;;;;8.85;4.97;;;25.60;99.90;;;;;;4976398;28;20079;-48
2022/11/13 01:41:10;;;;;;;10.40;4.80;;;25.60;99.90;;;;;;4976276;28;20019;-48
2022/11/13 01:43:37;;;;;;;10.85;5.90;;;25.60;99.90;;;;;;4976240;28;20046;-48
2022/11/13 01:46:13;;;;;;;10.80;5.00;;;25.60;99.90;;;;;;4976213;28;20053;-49
2022/11/13 01:48:43;;;;;;;12.10;5.40;;;25.60;99.90;;;;;;4976019;28;20043;-49
2022/11/13 01:51:14;;;;;;;8.93;4.82;;;25.60;99.90;;;;;;4976472;28;20073;-49
2022/11/13 01:53:42;;;;;;;8.15;4.72;;;25.60;99.90;;;;;;4976082;28;20498;-48
2022/11/13 01:56:08;;;;;;;9.10;5.05;;;25.60;99.90;;;;;;4976313;28;20447;-48
2022/11/13 01:58:36;;;;;;;8.77;4.72;;;25.60;99.90;;;;;;4976228;28;20367;-49
2022/11/13 02:01:03;;;;;;;9.43;5.28;;;25.50;99.90;;;;;;5020332;23;20494;-52
2022/11/13 02:03:29;;;;;;;9.83;5.37;;;25.50;99.90;;;;;;5015109;28;20069;-52
2022/11/13 02:05:55;;;;;;;10.30;5.22;;;25.50;99.90;;;;;;5014993;28;20743;-52
2022/11/13 02:08:21;;;;;;;8.75;5.90;;;25.50;99.90;;;;;;5014760;28;20030;-52
2022/11/13 02:10:47;;;;;;;9.02;5.13;;;25.50;99.90;;;;;;5015044;28;20573;-52
2022/11/13 02:13:14;;;;;;;11.63;6.32;;;25.50;99.90;;;;;;5014604;28;20038;-52
2022/11/13 02:15:41;;;;;;;9.75;5.35;;;25.50;99.90;;;;;;5013435;28;20022;-53
2022/11/13 02:18:08;;;;;;;11.43;5.40;;;25.50;99.90;;;;;;5014821;28;20072;-52
2022/11/13 02:20:57;;;;;;;7.90;4.65;;;25.50;99.90;;;;;;5013463;28;20049;-52
2022/11/13 02:23:44;;;;;;;9.63;5.07;;;25.50;99.90;;;;;;5014402;28;20034;-52
2022/11/13 02:26:10;;;;;;;11.10;5.20;;;25.50;99.90;;;;;;5014335;28;20045;-52
2022/11/13 02:28:36;;;;;;;8.90;5.05;;;25.50;99.90;;;;;;5014383;28;20037;-52
2022/11/13 02:31:10;;;;;;;8.40;4.68;;;25.40;99.90;;;;;;5013384;28;20470;-52
2022/11/13 02:33:36;;;;;;;9.95;4.35;;;25.40;99.90;;;;;;5014392;28;20069;-52
2022/11/13 02:36:04;;;;;;;9.23;5.38;;;25.40;99.90;;;;;;5014429;28;20439;-52
2022/11/13 02:38:31;;;;;;;9.98;5.32;;;25.40;99.90;;;;;;5014318;28;20057;-52
2022/11/13 02:40:57;;;;;;;11.43;5.53;;;25.40;99.90;;;;;;5014312;28;20022;-53
2022/11/13 02:43:23;;;;;;;11.65;5.10;;;25.40;99.90;;;;;;5014568;28;20544;-53
2022/11/13 02:45:48;;;;;;;9.27;4.60;;;25.40;99.90;;;;;;5014343;28;20512;-53
2022/11/13 02:48:14;;;;;;;11.57;5.10;;;25.40;99.90;;;;;;5014086;28;20382;-53
2022/11/13 02:50:40;;;;;;;7.63;4.72;;;25.30;99.90;;;;;;5014024;28;20498;-52
2022/11/13 02:53:06;;;;;;;10.35;5.18;;;25.40;99.90;;;;;;5013776;28;20041;-53
2022/11/13 02:55:32;;;;;;;9.52;4.38;;;25.30;99.90;;;;;;5014088;28;20363;-53
2022/11/13 02:57:58;;;;;;;8.30;4.72;;;25.30;99.90;;;;;;5013874;28;20434;-53
2022/11/13 03:00:23;;;;;;;10.32;4.80;;;25.30;99.90;;;;;;5014231;28;20078;-53
2022/11/13 03:02:49;;;;;;;9.35;4.97;;;25.30;99.90;;;;;;5013890;28;20022;-52
2022/11/13 03:05:15;;;;;;;7.57;4.90;;;25.30;99.90;;;;;;5014096;28;20033;-52
2022/11/13 03:07:41;;;;;;;9.00;5.00;;;25.30;99.90;;;;;;5013748;28;20479;-52
2022/11/13 03:10:08;;;;;;;8.98;4.75;;;25.30;99.90;;;;;;5013704;28;20029;-53
2022/11/13 03:12:34;;;;;;;7.93;4.47;;;25.30;99.90;;;;;;5013666;28;20026;-53
2022/11/13 03:15:00;;;;;;;10.55;5.25;;;25.30;99.90;;;;;;5013760;28;20028;-52
2022/11/13 03:17:26;;;;;;;7.63;4.32;;;25.30;99.90;;;;;;5028888;28;20076;-52
2022/11/13 03:19:51;;;;;;;7.00;4.65;;;25.30;99.90;;;;;;5013631;28;20034;-52
2022/11/13 03:22:17;;;;;;;7.97;4.13;;;25.30;99.90;;;;;;5013451;28;20076;-52
2022/11/13 03:24:43;;;;;;;10.10;4.47;;;25.20;99.90;;;;;;5013535;28;20088;-52
2022/11/13 03:27:08;;;;;;;10.35;4.20;;;25.20;99.90;;;;;;5013734;28;20110;-52
2022/11/13 03:29:35;;;;;;;7.93;4.53;;;25.20;99.90;;;;;;5012290;28;20484;-52
2022/11/13 03:32:02;;;;;;;8.55;4.68;;;25.20;99.90;;;;;;5013615;28;20018;-52
2022/11/13 03:34:27;;;;;;;9.73;4.82;;;25.20;99.90;;;;;;5013414;28;20487;-52
2022/11/13 03:36:53;;;;;;;6.60;4.78;;;25.20;99.90;;;;;;5013542;28;20036;-51
2022/11/13 03:39:19;;;;;;;8.52;4.22;;;25.20;99.90;;;;;;5016258;28;20501;-51
2022/11/13 03:41:45;;;;;;;10.30;4.30;;;25.20;99.90;;;;;;5019964;28;20053;-52
2022/11/13 03:44:11;;;;;;;8.27;4.38;;;25.20;99.90;;;;;;5020063;28;20050;-51
2022/11/13 03:46:37;;;;;;;9.40;4.57;;;25.20;99.90;;;;;;5020052;28;20022;-51
2022/11/13 03:49:03;;;;;;;8.65;4.28;;;25.20;99.90;;;;;;5020002;28;20036;-51
2022/11/13 03:51:28;;;;;;;9.63;4.75;;;25.20;99.90;;;;;;5019800;28;20064;-51
2022/11/13 03:53:54;;;;;;;9.65;4.15;;;25.10;99.90;;;;;;5019826;28;20038;-52
2022/11/13 03:56:20;;;;;;;9.40;3.90;;;25.10;99.90;;;;;;5020212;28;20072;-51
2022/11/13 03:58:45;;;;;;;7.95;4.40;;;25.10;99.90;;;;;;5019845;28;20409;-52
2022/11/13 04:01:11;;;;;;;6.40;4.30;;;25.10;99.90;;;;;;5017396;23;20066;-49
2022/11/13 04:03:37;;;;;;;8.35;4.75;;;25.10;99.90;;;;;;5000130;28;20088;-49
2022/11/13 04:06:03;;;;;;;7.97;5.05;;;25.10;99.90;;;;;;4999976;28;20032;-50
2022/11/13 04:08:28;;;;;;;6.93;3.92;;;25.10;99.90;;;;;;4982581;28;20386;-49
2022/11/13 04:10:54;;;;;;;8.82;4.85;;;25.10;99.90;;;;;;5000407;28;20360;-51
2022/11/13 04:13:20;;;;;;;8.80;4.38;;;25.10;99.90;;;;;;5000033;28;20042;-50
2022/11/13 04:15:46;;;;;;;8.35;4.30;;;25.00;99.90;;;;;;5000118;28;20029;-50
2022/11/13 04:18:12;;;;;;;7.70;3.78;;;25.00;99.90;;;;;;5000149;28;20029;-50
2022/11/13 04:20:38;;;;;;;8.15;4.10;;;25.00;99.90;;;;;;5000057;28;20022;-49
2022/11/13 04:23:07;;;;;;;9.07;4.03;;;25.00;99.90;;;;;;5000306;28;20467;-49
2022/11/13 04:25:33;;;;;;;9.40;4.50;;;25.00;99.90;;;;;;5000096;28;20492;-49
2022/11/13 04:27:59;;;;;;;7.40;4.00;;;25.00;99.90;;;;;;4999912;28;20030;-48
2022/11/13 04:30:25;;;;;;;10.05;4.93;;;25.00;99.90;;;;;;4999987;28;20105;-49
2022/11/13 04:32:50;;;;;;;9.93;4.22;;;25.00;99.90;;;;;;4999925;28;20537;-47
2022/11/13 04:35:16;;;;;;;8.38;4.45;;;25.00;99.90;;;;;;4999848;28;20049;-48
2022/11/13 04:37:42;;;;;;;9.20;4.43;;;25.00;99.90;;;;;;4999802;28;20022;-48
2022/11/13 04:40:08;;;;;;;9.45;4.80;;;25.00;99.90;;;;;;5000123;28;20069;-49
2022/11/13 04:42:49;;;;;;;7.30;3.67;;;25.00;99.90;;;;;;5000137;28;20057;-48
2022/11/13 04:45:20;;;;;;;7.93;3.65;;;25.00;99.90;;;;;;4999982;28;20110;-49
2022/11/13 04:47:46;;;;;;;8.85;4.07;;;25.00;99.90;;;;;;4999636;28;20479;-47
2022/11/13 04:50:13;;;;;;;6.13;3.83;;;25.00;99.90;;;;;;4998475;28;20033;-47
2022/11/13 04:52:39;;;;;;;9.20;3.97;;;24.90;99.90;;;;;;4996256;28;20026;-48
2022/11/13 04:55:05;;;;;;;7.30;3.67;;;24.90;99.90;;;;;;4996661;28;20033;-47
2022/11/13 04:57:32;;;;;;;6.97;3.60;;;24.90;99.90;;;;;;4995379;28;20033;-47
2022/11/13 04:59:57;;;;;;;10.73;4.72;;;24.90;99.90;;;;;;4997169;28;20129;-48
2022/11/13 05:02:23;;;;;;;7.72;3.60;;;24.90;99.90;;;;;;4997084;28;20091;-47
2022/11/13 05:04:49;;;;;;;6.32;3.00;;;24.90;99.90;;;;;;4996446;28;20109;-48
2022/11/13 05:07:15;;;;;;;7.40;3.50;;;24.90;99.90;;;;;;4979038;28;20527;-48
2022/11/13 05:09:40;;;;;;;10.35;3.88;;;24.90;99.90;;;;;;4996370;28;20494;-47
2022/11/13 05:12:07;;;;;;;5.07;3.60;;;24.90;99.90;;;;;;4996414;28;20356;-47
2022/11/13 05:14:40;;;;;;;8.32;4.03;;;24.90;99.90;;;;;;4996228;28;20045;-48
2022/11/13 05:17:08;;;;;;;8.23;3.70;;;24.90;99.90;;;;;;4996343;28;20424;-48
2022/11/13 05:19:34;;;;;;;6.95;4.00;;;24.80;99.90;;;;;;4979158;28;20467;-48
2022/11/13 05:22:00;;;;;;;5.70;3.17;;;24.80;99.90;;;;;;4996278;28;20030;-48
2022/11/13 05:24:26;;;;;;;5.95;3.63;;;24.90;99.90;;;;;;4978798;28;20026;-48
2022/11/13 05:26:52;;;;;;;7.15;3.33;;;24.80;99.90;;;;;;4995983;28;20110;-49
2022/11/13 05:29:18;;;;;;;6.55;3.30;;;24.80;99.90;;;;;;4995994;28;20054;-48
2022/11/13 05:31:44;;;;;;;7.10;3.45;;;24.80;99.90;;;;;;4995907;28;20031;-49
2022/11/13 05:34:10;;;;;;;6.40;3.80;;;24.80;99.90;;;;;;4995888;28;20070;-49
2022/11/13 05:36:36;;;;;;;5.95;3.65;;;24.80;99.90;;;;;;4978476;28;20027;-49
2022/11/13 05:39:02;;;;;;;8.10;3.70;;;24.80;99.90;;;;;;4995772;28;20483;-48
2022/11/13 05:41:28;;;;;;;7.88;3.55;;;24.80;99.90;;;;;;4995949;28;20050;-48
2022/11/13 05:43:53;;;;;;;7.03;3.90;;;24.80;99.90;;;;;;4995693;28;20549;-47
2022/11/13 05:46:21;;;;;;;5.82;3.30;;;24.80;99.90;;;;;;4995857;28;20077;-48
2022/11/13 05:48:52;;;;;;;6.90;3.03;;;24.80;99.90;;;;;;4995938;28;20084;-49
2022/11/13 05:51:21;;;;;;;8.27;3.10;;;24.80;99.90;;;;;;4995705;28;20023;-48
2022/11/13 05:53:46;;;;;;;7.38;4.10;;;24.80;99.90;;;;;;4995575;28;20121;-48
2022/11/13 05:56:16;;;;;;;5.80;2.95;;;24.80;99.90;;;;;;4995980;28;20126;-48
2022/11/13 05:58:43;;;;;;;4.43;2.75;;;24.80;99.90;;;;;;4994137;28;20092;-49
2022/11/13 06:01:18;;;;;;;6.32;3.17;;;24.80;99.90;;;;;;4995276;28;20042;-48
2022/11/13 06:03:45;;;;;;;5.60;3.10;;;24.70;99.90;;;;;;4994982;28;20030;-48
2022/11/13 06:06:13;;;;;;;8.50;3.30;;;24.70;99.90;;;;;;4995417;28;20125;-48
2022/11/13 06:08:39;;;;;;;5.22;3.10;;;24.70;99.90;;;;;;4995330;28;20066;-48
2022/11/13 06:11:09;;;;;;;5.35;3.00;;;24.70;99.90;;;;;;4995315;28;20397;-48
2022/11/13 06:13:35;;;;;;;6.68;3.58;;;24.70;99.90;;;;;;4995769;28;20502;-48
2022/11/13 06:16:23;;;;;;;7.80;3.50;;;24.70;99.90;;;;;;4992759;28;20030;-48
2022/11/13 06:18:49;;;;;;;;;;;24.70;99.90;;;;;;4986262;28;20051;-48
2022/11/13 06:21:18;;;;;;;6.55;3.67;;;24.70;99.90;;;;;;4959821;28;19911;-48
2022/11/13 06:23:44;;;;;;;11.63;4.28;;;24.70;99.90;;;;;;4975604;28;20480;-48
2022/11/13 06:26:19;;;;;;;9.80;3.90;;;24.70;99.90;;;;;;4974242;28;20514;-48
2022/11/13 06:28:45;;;;;;;8.05;3.72;;;24.70;99.90;;;;;;4975989;28;20034;-49
2022/11/13 06:31:23;;;;;;;7.13;3.50;;;24.70;99.90;;;;;;4973798;28;20097;-48
2022/11/13 06:33:49;;;;;;;9.90;3.55;;;24.70;99.90;;;;;;4982902;28;20495;-48
2022/11/13 06:36:21;;;;;;;10.20;4.63;;;24.70;99.90;;;;;;4982976;28;20027;-47
2022/11/13 06:38:48;;;;;;;8.75;3.60;;;24.70;99.90;;;;;;4985644;28;20101;-47
2022/11/13 06:41:15;;;;;;;7.47;3.80;;;24.70;99.90;;;;;;4985715;28;20026;-47
2022/11/13 06:43:42;;;;;;;9.10;4.07;;;24.70;99.90;;;;;;4982710;28;20058;-47
2022/11/13 06:46:14;;;;;;;9.65;4.13;;;24.60;99.90;;;;;;4973728;28;20045;-47
2022/11/13 06:48:40;;;;;;;9.23;4.00;;;24.60;99.90;;;;;;4973460;28;20488;-47
2022/11/13 06:51:09;;;;;;;9.25;4.15;;;24.60;99.90;;;;;;4972919;28;20104;-47
2022/11/13 06:53:35;;;;;;;9.77;3.97;;;24.60;99.90;;;;;;4972756;28;20039;-47
2022/11/13 06:56:03;;;;;;;8.20;4.03;;;24.60;99.90;;;;;;4972851;28;20038;-47
2022/11/13 06:58:29;;;;;;;11.30;3.88;;;24.60;99.90;;;;;;4972834;28;20053;-47
2022/11/13 07:00:54;;;;;;;6.70;4.07;;;24.60;99.90;;;;;;4972716;28;20145;-48
2022/11/13 07:03:22;;;;;;;9.25;4.00;;;24.60;99.90;;;;;;4974753;28;20033;-48
2022/11/13 07:05:48;;;;;;;9.20;4.00;;;24.60;99.90;;;;;;4974753;28;20388;-48
2022/11/13 07:08:15;;;;;;;7.30;4.03;;;24.60;99.90;;;;;;4974791;28;20487;-48
2022/11/13 07:10:41;;;;;;;9.23;4.55;;;24.60;99.90;;;;;;4973661;28;20548;-48
2022/11/13 07:13:08;;;;;;;10.77;4.00;;;24.60;99.90;;;;;;4974492;28;20031;-48
2022/11/13 07:15:38;;;;;;;8.30;4.35;;;24.60;99.90;;;;;;4974211;28;20062;-48
2022/11/13 07:18:05;;;;;;;9.77;4.15;;;24.60;99.90;;;;;;4974623;28;20423;-48
2022/11/13 07:20:32;;;;;;;6.60;4.20;;;24.60;99.90;;;;;;4974718;28;20054;-48
2022/11/13 07:23:00;;;;;;;14.05;4.78;;;24.60;99.90;;;;;;4974692;28;20113;-48
2022/11/13 07:25:27;;;;;;;8.15;4.95;;;24.60;99.90;;;;;;4974661;28;20023;-48
2022/11/13 07:27:53;;;;;;;10.52;4.75;;;24.60;99.90;;;;;;4957258;28;20040;-48
2022/11/13 07:30:19;;;;;;;7.00;3.97;;;24.60;99.90;;;;;;4974788;28;20527;-48
2022/11/13 07:32:45;;;;;;;7.30;4.38;;;24.60;99.90;;;;;;4974434;28;20027;-48
2022/11/13 07:35:11;;;;;;;8.25;4.18;;;24.70;99.90;;;;;;4974673;28;20031;-48
2022/11/13 07:37:37;;;;;;;9.65;4.40;;;24.70;99.90;;;;;;4974596;28;20023;-48
2022/11/13 07:40:04;;;;;;;6.75;4.57;;;24.70;99.90;;;;;;4974492;28;20023;-48
2022/11/13 07:42:30;;;;;;;8.35;5.28;;;24.70;99.90;;;;;;4974293;28;20104;-48
2022/11/13 07:44:56;;;;;;;9.10;4.32;;;24.70;99.90;;;;;;4974237;28;20070;-48
2022/11/13 07:47:22;;;;;;;9.60;4.70;;;24.70;99.90;;;;;;4974402;28;20027;-49
2022/11/13 07:49:48;;;;;;;9.07;5.53;;;24.80;99.90;;;;;;4974428;28;20030;-48
2022/11/13 07:52:14;;;;;;;8.30;4.82;;;24.70;99.90;;;;;;4973110;28;20479;-48
2022/11/13 07:54:40;;;;;;;9.10;4.60;;;24.80;99.90;;;;;;4974375;28;20050;-48
2022/11/13 07:57:05;;;;;;;9.73;4.82;;;24.80;99.90;;;;;;4974427;28;20050;-48
2022/11/13 07:59:31;;;;;;;10.52;5.07;;;24.80;99.90;;;;;;4974364;28;20055;-48
2022/11/13 08:01:57;;;;;;;8.70;4.70;;;24.90;99.90;;;;;;4974235;28;20491;-48
2022/11/13 08:04:23;;;;;;;7.45;4.57;;;24.90;99.90;;;;;;4974366;28;20030;-48
2022/11/13 08:06:49;;;;;;;8.55;4.85;;;24.90;99.90;;;;;;4974237;28;20019;-48
2022/11/13 08:09:14;;;;;;;15.27;4.75;;;25.00;99.90;;;;;;4974289;28;20035;-48
2022/11/13 08:11:40;;;;;;;6.43;3.88;;;25.00;99.90;;;;;;4974299;28;20030;-48
2022/11/13 08:14:06;;;;;;;8.60;5.25;;;25.00;99.90;;;;;;4974092;28;20510;-48
2022/11/13 08:16:31;;;;;;;9.90;4.90;;;25.00;99.90;;;;;;4974583;28;20054;-48
2022/11/13 08:18:57;;;;;;;7.53;4.13;;;25.10;99.90;;;;;;4974102;28;20027;-48
2022/11/13 08:21:23;;;;;;;9.82;5.40;;;25.10;99.90;;;;;;4974221;28;20051;-48
2022/11/13 08:23:49;;;;;;;10.77;5.07;;;25.10;99.90;;;;;;4974003;28;20058;-47
2022/11/13 08:26:16;;;;;;;7.55;4.72;;;25.20;99.90;;;;;;4976798;28;20023;-48
2022/11/13 08:28:43;;;;;;;7.97;4.75;;;25.20;99.90;;;;;;4977633;28;20031;-48
2022/11/13 08:31:11;;;;;;;9.15;4.93;;;25.20;99.90;;;;;;4977648;28;20026;-48
2022/11/13 08:33:37;;;;;;;10.70;7.00;;;25.30;99.90;;;;;;4977645;28;20505;-48
2022/11/13 08:36:03;;;;;;;8.38;4.60;;;25.30;99.90;;;;;;4977547;28;20105;-49
2022/11/13 08:38:29;;;;;;;12.45;4.53;;;25.30;99.90;;;;;;4977560;28;20383;-48
2022/11/13 08:40:58;;;;;;;8.68;5.45;;;25.40;99.90;;;;;;4976107;28;20022;-49
2022/11/13 08:43:25;;;;;;;10.18;4.72;;;25.40;99.90;;;;;;4977592;28;20494;-48
2022/11/13 08:45:50;;;;;;;13.15;4.82;;;25.40;99.90;;;;;;4977381;28;20061;-49
2022/11/13 08:48:16;;;;;;;7.38;4.35;;;25.50;99.90;;;;;;4977669;28;20108;-49
2022/11/13 08:50:42;;;;;;;7.57;4.45;;;25.50;99.90;;;;;;4977513;28;20023;-49
2022/11/13 08:53:08;;;;;;;8.10;4.47;;;25.50;99.90;;;;;;4977351;28;20031;-48
2022/11/13 08:55:34;;;;;;;11.55;5.85;;;25.60;99.90;;;;;;4977180;28;20431;-48
2022/11/13 08:58:01;;;;;;;9.55;5.82;;;25.60;99.90;;;;;;4977029;28;20026;-49
2022/11/13 09:00:29;;;;;;;11.52;5.45;;;25.70;99.90;;;;;;4976891;28;20554;-48
2022/11/13 09:02:56;;;;;;;9.10;5.25;;;25.70;99.90;;;;;;4959694;28;20380;-49
2022/11/13 09:05:22;;;;;;;8.95;5.35;;;25.70;99.90;;;;;;4977033;28;20019;-48
2022/11/13 09:07:49;;;;;;;10.63;5.45;;;25.70;99.90;;;;;;4976919;28;20035;-49
2022/11/13 09:10:16;;;;;;;12.02;5.07;;;25.80;99.90;;;;;;4976766;28;20022;-49
2022/11/13 09:12:42;;;;;;;;;;;25.80;99.90;;;;;;4977258;28;20412;-48
2022/11/13 09:15:09;;;;;;;11.00;5.15;;;25.80;99.90;;;;;;4976899;28;19960;-49
2022/11/13 09:17:35;;;;;;;8.40;5.28;;;25.80;99.90;;;;;;4977016;28;20023;-49
2022/11/13 09:20:01;;;;;;;10.02;5.47;;;25.90;99.90;;;;;;4976751;28;20035;-49
2022/11/13 09:22:27;;;;;;;7.93;5.32;;;25.90;99.90;;;;;;4976799;28;20080;-49
2022/11/13 09:24:53;;;;;;;8.35;5.47;;;25.90;99.90;;;;;;4959452;28;20053;-49
2022/11/13 09:27:18;;;;;;;9.43;5.03;;;26.00;99.90;;;;;;4976638;28;20055;-49
2022/11/13 09:29:44;;;;;;;9.68;5.60;;;26.00;99.90;;;;;;4976529;28;20027;-49
2022/11/13 09:32:10;;;;;;;7.47;4.88;;;26.10;99.90;;;;;;4976678;28;20038;-47
2022/11/13 09:34:35;;;;;;;9.70;5.35;;;26.10;99.90;;;;;;4976348;28;20109;-48
2022/11/13 09:37:01;;;;;;;10.23;5.97;;;26.10;99.90;;;;;;4975645;28;20030;-48
2022/11/13 09:39:27;;;;;;;12.35;5.80;;;26.10;99.90;;;;;;4976408;28;20035;-48
2022/11/13 09:42:16;;;;;;;10.40;6.00;;;26.20;99.90;;;;;;4976547;28;20497;-48
2022/11/13 09:44:50;;;;;;;12.15;5.88;;;26.20;99.90;;;;;;4958591;28;20042;-48
2022/11/13 09:47:26;;;;;;;10.05;5.43;;;26.30;99.90;;;;;;4976216;28;20047;-51
2022/11/13 09:50:17;;;;;;;10.25;5.90;;;26.30;99.90;;;;;;4976163;28;20054;-48
2022/11/13 09:52:44;;;;;;;14.23;5.85;;;26.30;99.90;;;;;;4976032;28;20037;-48
2022/11/13 09:55:17;;;;;;;9.93;5.32;;;26.40;99.90;;;;;;4976156;28;20031;-48
2022/11/13 09:58:11;;;;;;;12.73;5.60;;;26.40;99.90;;;;;;4974851;28;20022;-48
2022/11/13 10:00:38;;;;;;;6.60;5.10;;;26.50;99.90;;;;;;4975917;28;20046;-48
2022/11/13 10:03:29;;;;;;;10.20;5.97;;;26.50;99.90;;;;;;4974551;28;20477;-48
2022/11/13 10:06:13;;;;;;;14.70;5.35;;;26.50;99.90;;;;;;4975909;28;20448;-48
2022/11/13 10:08:45;;;;;;;9.32;6.28;;;26.60;99.90;;;;;;4958511;28;20069;-48
2022/11/13 10:11:22;;;;;;;11.88;7.13;;;26.60;99.90;;;;;;4976053;28;20035;-48
2022/11/13 10:13:56;;;;;;;13.35;6.05;;;26.70;99.90;;;;;;4975737;28;20364;-48
2022/11/13 10:16:37;;;;;;;9.75;5.82;;;26.70;99.90;;;;;;4975912;28;20415;-48
2022/11/13 10:19:13;;;;;;;9.45;6.68;;;26.80;99.90;;;;;;4974300;28;20031;-48
2022/11/13 10:21:47;;;;;;;8.43;6.28;;;26.80;99.90;;;;;;4975571;28;20019;-48
2022/11/13 10:24:24;;;;;;;10.65;6.60;;;26.90;99.90;;;;;;4975631;28;20498;-48
2022/11/13 10:26:50;;;;;;;9.70;6.55;;;26.90;99.90;;;;;;4975468;28;20030;-48
2022/11/13 10:29:18;;;;;;;10.38;5.63;;;26.90;99.90;;;;;;4975355;28;20031;-48
2022/11/13 10:31:48;;;;;;;10.52;6.72;;;27.00;99.90;;;;;;4975393;28;20479;-48
2022/11/13 10:34:15;;;;;;;10.65;6.07;;;27.10;99.90;;;;;;4975167;28;20045;-48
2022/11/13 10:36:53;;;;;;;11.48;7.05;;;27.10;99.90;;;;;;4975405;28;20019;-48
2022/11/13 10:39:19;;;;;;;9.63;6.70;;;27.10;99.90;;;;;;4975383;28;20027;-48
2022/11/13 10:41:49;;;;;;;8.98;6.07;;;27.20;99.90;;;;;;4975160;28;20029;-48
2022/11/13 10:44:29;;;;;;;12.75;7.20;;;27.20;99.90;;;;;;4975105;28;20452;-47
2022/11/13 10:47:09;;;;;;;11.88;7.80;;;27.20;99.90;;;;;;4974897;28;20033;-47
2022/11/13 10:49:35;;;;;;;12.95;7.13;;;27.30;99.90;;;;;;4974126;28;20027;-48
2022/11/13 10:52:01;;;;;;;11.00;7.57;;;27.30;99.90;;;;;;4975067;28;20026;-48
2022/11/13 10:54:32;;;;;;;9.98;7.20;;;27.30;99.90;;;;;;4973852;28;20400;-48
2022/11/13 10:56:59;;;;;;;12.90;7.47;;;27.30;99.90;;;;;;4975046;28;20110;-48
2022/11/13 10:59:25;;;;;;;11.30;7.25;;;27.40;99.90;;;;;;4974728;28;20102;-47
2022/11/13 11:01:51;;;;;;;9.60;8.03;;;27.40;99.90;;;;;;4975096;28;20054;-47
2022/11/13 11:04:26;;;;;;;11.13;7.72;;;27.40;99.90;;;;;;4957441;28;20057;-47
2022/11/13 11:06:53;;;;;;;12.45;7.93;;;27.50;99.90;;;;;;4974715;28;20054;-48
2022/11/13 11:09:32;;;;;;;10.48;7.25;;;27.50;99.90;;;;;;4974799;28;20057;-48
2022/11/13 11:12:15;;;;;;;11.43;8.10;;;27.50;99.90;;;;;;4974807;28;20480;-48
2022/11/13 11:15:00;;;;;;;10.93;8.18;;;27.60;99.90;;;;;;4974706;28;20042;-48
2022/11/13 11:17:44;;;;;;;10.50;7.75;;;27.60;99.90;;;;;;4957517;28;20110;-48
2022/11/13 11:20:34;;;;;;;11.98;8.18;;;27.60;99.90;;;;;;4974712;28;20098;-48
2022/11/13 11:23:22;;;;;;;9.60;7.82;;;27.60;99.90;;;;;;4973456;28;20385;-47
2022/11/13 11:26:02;;;;;;;12.23;8.55;;;27.70;99.90;;;;;;4974457;28;20042;-48
2022/11/13 11:28:50;;;;;;;11.63;8.65;;;27.70;99.90;;;;;;4974687;28;20022;-47
2022/11/13 11:31:39;;;;;;;12.18;8.48;;;27.70;99.90;;;;;;4973213;28;20027;-48
2022/11/13 11:34:20;;;;;;;11.88;8.18;;;27.70;99.90;;;;;;4974430;28;20484;-48
2022/11/13 11:37:01;;;;;;;12.82;8.20;;;27.70;99.90;;;;;;4974491;28;20023;-48
2022/11/13 11:39:30;;;;;;;13.05;8.65;;;27.80;99.90;;;;;;4974353;28;20061;-48
2022/11/13 11:42:29;;;;;;;17.00;9.68;;;27.80;99.90;;;;;;4974469;28;20023;-48
2022/11/13 11:45:22;;;;;;;16.00;11.25;;;27.80;99.90;;;;;;4956304;28;20093;-48
2022/11/13 11:47:49;;;;;;;17.58;11.25;;;27.80;99.90;;;;;;4974526;28;20030;-47
2022/11/13 11:50:22;;;;;;;16.55;12.88;;;27.80;99.90;;;;;;4974366;28;20106;-48
2022/11/13 11:53:28;;;;;;;14.90;11.70;;;27.90;99.90;;;;;;4974334;28;20089;-48
2022/11/13 11:56:25;;;;;;;16.40;11.70;;;27.90;99.90;;;;;;4953102;29;20054;-47
2022/11/13 11:58:51;;;;;;;19.75;12.80;;;27.90;99.90;;;;;;4952155;28;20040;-48
2022/11/13 12:01:37;;;;;;;20.13;12.45;;;27.90;99.90;;;;;;4970170;28;20443;-47
2022/11/13 12:04:06;;;;;;;20.35;13.18;;;27.90;99.90;;;;;;4978107;28;20030;-47
2022/11/13 12:06:49;;;;;;;20.65;14.05;;;27.90;99.90;;;;;;4978032;28;20030;-48
2022/11/13 12:09:30;;;;;;;18.52;12.57;;;27.90;99.90;;;;;;4977839;28;20022;-48
2022/11/13 12:12:27;;;;;;;19.90;12.90;;;28.00;99.90;;;;;;4977971;28;20540;-48
2022/11/13 12:15:10;;;;;;;25.35;14.77;;;27.90;99.90;;;;;;4977702;28;20026;-47
2022/11/13 12:17:59;;;;;;;19.58;14.10;;;28.00;99.90;;;;;;4977807;28;20023;-48
2022/11/13 12:21:13;;;;;;;20.10;15.02;;;28.00;99.90;;;;;;4978138;28;20034;-48
2022/11/13 12:24:01;;;;;;;29.88;18.60;;;28.00;99.90;;;;;;4937165;29;20042;-48
2022/11/13 12:26:42;;;;;;;27.75;19.05;;;28.00;99.90;;;;;;4958097;28;20027;-48
2022/11/13 12:29:39;;;;;;;29.20;19.63;;;28.10;99.90;;;;;;4977471;28;20023;-48
2022/11/13 12:32:24;;;;;;;29.52;21.55;;;28.00;99.90;;;;;;4977448;28;20064;-48
2022/11/13 12:34:55;;;;;;;32.92;22.42;;;28.10;99.90;;;;;;4977553;28;20122;-48
2022/11/13 12:37:41;;;;;;;29.30;20.60;;;28.10;99.90;;;;;;4977551;28;20502;-48
2022/11/13 12:40:13;;;;;;;35.38;23.13;;;28.10;99.90;;;;;;4977551;28;20365;-48
2022/11/13 12:43:08;;;;;;;32.33;21.88;;;28.10;99.90;;;;;;4977325;28;20027;-48
2022/11/13 12:46:06;;;;;;;32.95;22.70;;;28.10;99.90;;;;;;4958482;28;20439;-48
2022/11/13 12:48:34;;;;;;;39.03;23.33;;;28.10;99.90;;;;;;4977450;28;20027;-48
2022/11/13 12:51:03;;;;;;;33.25;23.10;;;28.10;99.90;;;;;;4977171;28;20031;-48
2022/11/13 12:53:42;;;;;;;28.00;21.85;;;28.10;99.90;;;;;;4959991;28;20437;-47
2022/11/13 12:56:33;;;;;;;28.02;20.75;;;28.20;99.90;;;;;;4977097;28;20026;-48